sensor_id;sensor_type;location;lat;lon;timestamp;pressure;altitude;pressure_sealevel;temperature;humidity
72055;BME280;59936;51.490;5.436;2023-05-01T00:00:13;101603.22;;;11.50;64.78
72055;BME280;59936;51.490;5.436;2023-05-01T00:02:39;101598.25;;;11.55;64.36
72055;BME280;59936;51.490;5.436;2023-05-01T00:05:05;101598.25;;;11.55;64.36
72055;BME280;59936;51.490;5.436;2023-05-01T00:07:31;101592.09;;;11.44;67.22
72055;BME280;59936;51.490;5.436;2023-05-01T00:09:56;101590.09;;;11.47;64.64
72055;BME280;59936;51.490;5.436;2023-05-01T00:12:22;101587.19;;;11.40;67.97
72055;BME280;59936;51.490;5.436;2023-05-01T00:14:48;101584.03;;;11.44;64.81
72055;BME280;59936;51.490;5.436;2023-05-01T00:17:14;101583.75;;;11.48;64.36
72055;BME280;59936;51.490;5.436;2023-05-01T00:19:41;101575.44;;;11.41;66.54
72055;BME280;59936;51.490;5.436;2023-05-01T00:22:07;101575.84;;;11.46;64.72
72055;BME280;59936;51.490;5.436;2023-05-01T00:24:33;101565.97;;;11.47;64.42
72055;BME280;59936;51.490;5.436;2023-05-01T00:26:58;101566.66;;;11.49;64.39
72055;BME280;59936;51.490;5.436;2023-05-01T00:29:24;101559.38;;;11.41;65.92
72055;BME280;59936;51.490;5.436;2023-05-01T00:31:50;101559.75;;;11.46;64.57
72055;BME280;59936;51.490;5.436;2023-05-01T00:34:16;101554.19;;;11.39;66.15
72055;BME280;59936;51.490;5.436;2023-05-01T00:36:42;101553.56;;;11.45;64.53
72055;BME280;59936;51.490;5.436;2023-05-01T00:39:08;101547.97;;;11.39;65.93
72055;BME280;59936;51.490;5.436;2023-05-01T00:41:34;101547.34;;;11.45;64.54
72055;BME280;59936;51.490;5.436;2023-05-01T00:44:00;101549.81;;;11.38;66.20
72055;BME280;59936;51.490;5.436;2023-05-01T00:46:27;101544.66;;;11.45;64.60
72055;BME280;59936;51.490;5.436;2023-05-01T00:48:53;101543.53;;;11.48;64.32
72055;BME280;59936;51.490;5.436;2023-05-01T00:51:19;101544.38;;;11.48;64.77
72055;BME280;59936;51.490;5.436;2023-05-01T00:53:45;101547.66;;;11.42;68.46
72055;BME280;59936;51.490;5.436;2023-05-01T00:56:11;101536.63;;;11.45;65.24
72055;BME280;59936;51.490;5.436;2023-05-01T00:58:37;101537.25;;;11.39;67.84
72055;BME280;59936;51.490;5.436;2023-05-01T01:01:03;101536.63;;;11.45;64.76
72055;BME280;59936;51.490;5.436;2023-05-01T01:03:29;101536.63;;;11.45;64.76
72055;BME280;59936;51.490;5.436;2023-05-01T01:08:38;101524.28;;;11.34;65.21
72055;BME280;59936;51.490;5.436;2023-05-01T01:16:08;101515.69;;;11.31;64.74
72055;BME280;59936;51.490;5.436;2023-05-01T01:21:32;101506.56;;;11.24;65.02
72055;BME280;59936;51.490;5.436;2023-05-01T01:34:26;101490.03;;;11.10;65.78
72055;BME280;59936;51.490;5.436;2023-05-01T01:37:07;101482.03;;;11.01;67.73
72055;BME280;59936;51.490;5.436;2023-05-01T01:42:12;101477.38;;;11.03;65.95
72055;BME280;59936;51.490;5.436;2023-05-01T01:44:41;101471.16;;;11.02;66.09
72055;BME280;59936;51.490;5.436;2023-05-01T01:47:11;101471.16;;;11.02;65.99
72055;BME280;59936;51.490;5.436;2023-05-01T01:49:42;101464.09;;;11.01;66.31
72055;BME280;59936;51.490;5.436;2023-05-01T01:52:11;101464.94;;;11.02;66.61
72055;BME280;59936;51.490;5.436;2023-05-01T01:54:42;101461.28;;;11.03;66.46
72055;BME280;59936;51.490;5.436;2023-05-01T01:57:12;101455.91;;;11.03;66.40
72055;BME280;59936;51.490;5.436;2023-05-01T01:59:41;101456.06;;;11.01;66.09
72055;BME280;59936;51.490;5.436;2023-05-01T02:02:08;101452.53;;;11.01;66.29
72055;BME280;59936;51.490;5.436;2023-05-01T02:04:35;101454.94;;;11.04;66.02
72055;BME280;59936;51.490;5.436;2023-05-01T02:07:01;101451.56;;;11.02;66.19
72055;BME280;59936;51.490;5.436;2023-05-01T02:09:29;101453.53;;;11.00;66.18
72055;BME280;59936;51.490;5.436;2023-05-01T02:11:55;101448.03;;;11.01;66.06
72055;BME280;59936;51.490;5.436;2023-05-01T02:14:25;101446.75;;;11.05;65.83
72055;BME280;59936;51.490;5.436;2023-05-01T02:16:52;101439.53;;;11.06;66.00
72055;BME280;59936;51.490;5.436;2023-05-01T02:19:18;101440.25;;;11.08;65.78
72055;BME280;59936;51.490;5.436;2023-05-01T02:21:45;101435.31;;;11.03;66.15
72055;BME280;59936;51.490;5.436;2023-05-01T02:24:13;101437.47;;;11.00;66.30
72055;BME280;59936;51.490;5.436;2023-05-01T02:26:46;101436.72;;;10.98;66.90
72055;BME280;59936;51.490;5.436;2023-05-01T02:29:14;101435.22;;;10.95;66.78
72055;BME280;59936;51.490;5.436;2023-05-01T02:31:40;101432.69;;;10.94;66.82
72055;BME280;59936;51.490;5.436;2023-05-01T02:34:05;101424.84;;;10.83;68.32
72055;BME280;59936;51.490;5.436;2023-05-01T02:36:31;101426.41;;;10.85;66.89
72055;BME280;59936;51.490;5.436;2023-05-01T02:38:57;101427.84;;;10.80;69.75
72055;BME280;59936;51.490;5.436;2023-05-01T02:41:22;101420.34;;;10.83;67.16
72055;BME280;59936;51.490;5.436;2023-05-01T02:43:52;101421.94;;;10.76;68.47
72055;BME280;59936;51.490;5.436;2023-05-01T02:46:21;101418.66;;;10.82;66.91
72055;BME280;59936;51.490;5.436;2023-05-01T02:48:49;101414.16;;;10.83;66.80
72055;BME280;59936;51.490;5.436;2023-05-01T02:51:17;101409.94;;;10.80;66.81
72055;BME280;59936;51.490;5.436;2023-05-01T02:53:44;101409.09;;;10.80;66.94
72055;BME280;59936;51.490;5.436;2023-05-01T02:56:11;101391.47;;;10.77;67.07
72055;BME280;59936;51.490;5.436;2023-05-01T02:58:37;101394.00;;;10.78;67.11
72055;BME280;59936;51.490;5.436;2023-05-01T03:01:03;101395.38;;;10.83;67.04
72055;BME280;59936;51.490;5.436;2023-05-01T03:03:29;101395.38;;;10.83;67.04
72055;BME280;59936;51.490;5.436;2023-05-01T03:05:54;101394.09;;;10.69;68.14
72055;BME280;59936;51.490;5.436;2023-05-01T03:08:20;101390.81;;;10.75;67.28
72055;BME280;59936;51.490;5.436;2023-05-01T03:10:46;101384.50;;;10.66;68.43
72055;BME280;59936;51.490;5.436;2023-05-01T03:13:12;101382.91;;;10.73;67.06
72055;BME280;59936;51.490;5.436;2023-05-01T03:15:38;101389.16;;;10.64;68.65
72055;BME280;59936;51.490;5.436;2023-05-01T03:18:04;101380.84;;;10.67;67.63
72055;BME280;59936;51.490;5.436;2023-05-01T03:20:30;101373.25;;;10.63;69.72
72055;BME280;59936;51.490;5.436;2023-05-01T03:22:55;101373.78;;;10.66;67.90
72055;BME280;59936;51.490;5.436;2023-05-01T03:25:21;101370.88;;;10.60;69.29
72055;BME280;59936;51.490;5.436;2023-05-01T03:27:47;101370.41;;;10.64;67.61
72055;BME280;59936;51.490;5.436;2023-05-01T03:30:13;101367.75;;;10.64;68.04
72055;BME280;59936;51.490;5.436;2023-05-01T03:32:39;101367.75;;;10.64;68.04
72055;BME280;59936;51.490;5.436;2023-05-01T03:35:05;101356.09;;;10.56;69.45
72055;BME280;59936;51.490;5.436;2023-05-01T03:37:30;101350.44;;;10.59;67.58
72055;BME280;59936;51.490;5.436;2023-05-01T03:39:56;101360.00;;;10.61;67.28
72055;BME280;59936;51.490;5.436;2023-05-01T03:42:22;101357.09;;;10.55;70.38
72055;BME280;59936;51.490;5.436;2023-05-01T03:44:48;101353.13;;;10.59;67.96
72055;BME280;59936;51.490;5.436;2023-05-01T03:47:13;101349.88;;;10.55;70.36
72055;BME280;59936;51.490;5.436;2023-05-01T03:49:39;101347.75;;;10.59;67.80
72055;BME280;59936;51.490;5.436;2023-05-01T03:52:05;101349.53;;;10.50;70.00
72055;BME280;59936;51.490;5.436;2023-05-01T03:54:31;101349.88;;;10.55;67.99
72055;BME280;59936;51.490;5.436;2023-05-01T03:56:56;101345.16;;;10.49;70.47
72055;BME280;59936;51.490;5.436;2023-05-01T03:59:22;101351.91;;;10.53;67.73
72055;BME280;59936;51.490;5.436;2023-05-01T04:01:48;101345.44;;;10.46;70.00
72055;BME280;59936;51.490;5.436;2023-05-01T04:04:14;101338.13;;;10.48;67.72
72055;BME280;59936;51.490;5.436;2023-05-01T04:06:39;101338.84;;;10.40;69.56
72055;BME280;59936;51.490;5.436;2023-05-01T04:09:05;101338.41;;;10.45;67.83
72055;BME280;59936;51.490;5.436;2023-05-01T04:11:31;101336.47;;;10.37;69.81
72055;BME280;59936;51.490;5.436;2023-05-01T04:13:57;101332.50;;;10.41;67.94
72055;BME280;59936;51.490;5.436;2023-05-01T04:16:23;101334.25;;;10.33;69.79
72055;BME280;59936;51.490;5.436;2023-05-01T04:18:49;101341.38;;;10.42;67.98
72055;BME280;59936;51.490;5.436;2023-05-01T04:21:15;101341.38;;;10.42;67.98
72055;BME280;59936;51.490;5.436;2023-05-01T04:23:40;101336.91;;;10.33;69.46
72055;BME280;59936;51.490;5.436;2023-05-01T04:26:06;101333.09;;;10.35;67.82
72055;BME280;59936;51.490;5.436;2023-05-01T04:28:32;101339.53;;;10.25;69.36
72055;BME280;59936;51.490;5.436;2023-05-01T04:30:58;101342.75;;;10.28;68.39
72055;BME280;59936;51.490;5.436;2023-05-01T04:33:23;101351.91;;;10.26;71.31
72055;BME280;59936;51.490;5.436;2023-05-01T04:35:49;101357.06;;;10.37;68.51
72055;BME280;59936;51.490;5.436;2023-05-01T04:38:15;101352.25;;;10.40;71.25
72055;BME280;59936;51.490;5.436;2023-05-01T04:40:41;101341.25;;;10.43;68.00
72055;BME280;59936;51.490;5.436;2023-05-01T04:43:07;101355.31;;;10.46;67.59
72055;BME280;59936;51.490;5.436;2023-05-01T04:45:33;101353.78;;;10.43;71.09
72055;BME280;59936;51.490;5.436;2023-05-01T04:47:58;101351.81;;;10.45;68.21
72055;BME280;59936;51.490;5.436;2023-05-01T04:50:24;101337.88;;;10.41;70.36
72055;BME280;59936;51.490;5.436;2023-05-01T04:52:50;101341.38;;;10.42;67.54
72055;BME280;59936;51.490;5.436;2023-05-01T04:55:16;101341.97;;;10.36;69.32
72055;BME280;59936;51.490;5.436;2023-05-01T04:57:41;101345.06;;;10.41;67.30
72055;BME280;59936;51.490;5.436;2023-05-01T05:00:07;101337.19;;;10.39;72.29
72055;BME280;59936;51.490;5.436;2023-05-01T05:02:33;101345.44;;;10.46;67.54
72055;BME280;59936;51.490;5.436;2023-05-01T05:04:59;101345.44;;;10.46;67.54
72055;BME280;59936;51.490;5.436;2023-05-01T05:07:25;101337.19;;;10.39;69.07
72055;BME280;59936;51.490;5.436;2023-05-01T05:09:51;101335.44;;;10.48;68.01
72055;BME280;59936;51.490;5.436;2023-05-01T05:12:16;101341.72;;;10.57;68.29
72055;BME280;59936;51.490;5.436;2023-05-01T05:14:42;101341.72;;;10.57;68.29
72055;BME280;59936;51.490;5.436;2023-05-01T05:17:08;101338.34;;;10.55;69.93
72055;BME280;59936;51.490;5.436;2023-05-01T05:19:34;101336.59;;;10.63;67.68
72055;BME280;59936;51.490;5.436;2023-05-01T05:22:03;101336.31;;;10.66;70.09
72055;BME280;59936;51.490;5.436;2023-05-01T05:24:29;101334.56;;;10.75;67.60
72055;BME280;59936;51.490;5.436;2023-05-01T05:26:55;101328.25;;;10.84;67.15
72055;BME280;59936;51.490;5.436;2023-05-01T05:29:21;101345.88;;;10.87;69.77
72055;BME280;59936;51.490;5.436;2023-05-01T05:31:47;101329.19;;;10.93;67.54
72055;BME280;59936;51.490;5.436;2023-05-01T05:34:13;101336.78;;;10.97;69.34
72055;BME280;59936;51.490;5.436;2023-05-01T05:36:38;101336.41;;;11.10;67.25
72055;BME280;59936;51.490;5.436;2023-05-01T05:39:04;101335.66;;;11.18;68.94
72055;BME280;59936;51.490;5.436;2023-05-01T05:41:31;101334.91;;;11.33;66.89
72055;BME280;59936;51.490;5.436;2023-05-01T05:43:57;101329.81;;;11.48;69.34
72055;BME280;59936;51.490;5.436;2023-05-01T05:46:22;101324.56;;;11.64;66.62
72055;BME280;59936;51.490;5.436;2023-05-01T05:48:48;101321.00;;;11.82;68.42
72055;BME280;59936;51.490;5.436;2023-05-01T05:51:14;101328.31;;;12.05;65.77
72055;BME280;59936;51.490;5.436;2023-05-01T05:53:40;101325.19;;;12.18;68.53
72055;BME280;59936;51.490;5.436;2023-05-01T05:56:05;101320.50;;;12.28;65.47
72055;BME280;59936;51.490;5.436;2023-05-01T05:58:31;101317.16;;;12.26;67.20
72055;BME280;59936;51.490;5.436;2023-05-01T06:00:57;101320.16;;;12.31;64.97
72055;BME280;59936;51.490;5.436;2023-05-01T06:03:23;101316.00;;;12.37;66.74
72055;BME280;59936;51.490;5.436;2023-05-01T06:05:49;101314.81;;;12.31;64.98
72055;BME280;59936;51.490;5.436;2023-05-01T06:08:14;101321.69;;;12.26;66.49
72055;BME280;59936;51.490;5.436;2023-05-01T06:10:41;101316.69;;;12.39;64.91
72055;BME280;59936;51.490;5.436;2023-05-01T06:13:07;101324.84;;;12.63;64.47
72055;BME280;59936;51.490;5.436;2023-05-01T06:15:34;101324.84;;;12.63;64.47
72055;BME280;59936;51.490;5.436;2023-05-01T06:18:01;101317.81;;;12.78;64.28
72055;BME280;59936;51.490;5.436;2023-05-01T06:20:26;101321.84;;;12.82;64.73
72055;BME280;59936;51.490;5.436;2023-05-01T06:22:52;101321.34;;;12.95;64.30
72055;BME280;59936;51.490;5.436;2023-05-01T06:25:47;101323.53;;;12.66;64.12
72055;BME280;59936;51.490;5.436;2023-05-01T06:28:12;101323.53;;;12.66;64.12
72055;BME280;59936;51.490;5.436;2023-05-01T06:30:38;101315.28;;;12.68;63.73
72055;BME280;59936;51.490;5.436;2023-05-01T06:33:04;101318.81;;;12.68;63.71
72055;BME280;59936;51.490;5.436;2023-05-01T06:35:30;101318.81;;;12.68;63.71
72055;BME280;59936;51.490;5.436;2023-05-01T06:37:55;101314.13;;;12.70;64.36
72055;BME280;59936;51.490;5.436;2023-05-01T06:40:21;101310.22;;;12.97;63.60
72055;BME280;59936;51.490;5.436;2023-05-01T06:42:47;101314.91;;;13.11;64.28
72055;BME280;59936;51.490;5.436;2023-05-01T06:45:13;101311.19;;;13.12;62.98
72055;BME280;59936;51.490;5.436;2023-05-01T06:47:38;101308.69;;;13.19;63.57
72055;BME280;59936;51.490;5.436;2023-05-01T06:50:04;101312.47;;;13.41;62.91
72055;BME280;59936;51.490;5.436;2023-05-01T06:52:30;101314.19;;;13.50;64.18
72055;BME280;59936;51.490;5.436;2023-05-01T06:54:56;101312.28;;;13.58;62.74
72055;BME280;59936;51.490;5.436;2023-05-01T06:57:22;101303.34;;;13.58;62.42
72055;BME280;59936;51.490;5.436;2023-05-01T06:59:48;101308.03;;;13.72;62.64
72055;BME280;59936;51.490;5.436;2023-05-01T07:02:13;101303.31;;;13.66;62.47
72055;BME280;59936;51.490;5.436;2023-05-01T07:04:39;101309.31;;;13.76;62.36
72055;BME280;59936;51.490;5.436;2023-05-01T07:07:05;101309.31;;;13.76;62.36
72055;BME280;59936;51.490;5.436;2023-05-01T07:09:31;101304.47;;;14.02;62.03
72055;BME280;59936;51.490;5.436;2023-05-01T07:11:57;101305.19;;;14.42;61.65
72055;BME280;59936;51.490;5.436;2023-05-01T07:14:23;101311.41;;;14.88;61.27
72055;BME280;59936;51.490;5.436;2023-05-01T07:16:49;101294.97;;;14.98;60.98
72055;BME280;59936;51.490;5.436;2023-05-01T07:19:15;101306.56;;;14.84;60.80
72055;BME280;59936;51.490;5.436;2023-05-01T07:21:41;101302.13;;;14.68;61.31
72055;BME280;59936;51.490;5.436;2023-05-01T07:24:06;101307.41;;;14.84;61.46
72055;BME280;59936;51.490;5.436;2023-05-01T07:26:35;101298.94;;;14.87;61.16
72055;BME280;59936;51.490;5.436;2023-05-01T07:29:01;101300.44;;;15.04;61.05
72055;BME280;59936;51.490;5.436;2023-05-01T07:31:27;101304.19;;;15.33;60.71
72055;BME280;59936;51.490;5.436;2023-05-01T07:33:53;101296.56;;;15.66;60.46
72055;BME280;59936;51.490;5.436;2023-05-01T07:36:19;101301.44;;;16.06;59.93
72055;BME280;59936;51.490;5.436;2023-05-01T07:38:44;101302.53;;;16.33;59.75
72055;BME280;59936;51.490;5.436;2023-05-01T07:41:10;101306.00;;;16.70;58.85
72055;BME280;59936;51.490;5.436;2023-05-01T07:43:36;101307.97;;;16.83;58.72
72055;BME280;59936;51.490;5.436;2023-05-01T07:46:02;101308.47;;;16.93;58.44
72055;BME280;59936;51.490;5.436;2023-05-01T07:48:28;101301.59;;;16.90;57.76
72055;BME280;59936;51.490;5.436;2023-05-01T07:50:54;101294.00;;;17.41;58.29
72055;BME280;59936;51.490;5.436;2023-05-01T07:53:20;101304.41;;;17.79;57.39
72055;BME280;59936;51.490;5.436;2023-05-01T07:55:46;101304.41;;;17.79;57.39
72055;BME280;59936;51.490;5.436;2023-05-01T07:58:12;101305.78;;;18.03;57.15
72055;BME280;59936;51.490;5.436;2023-05-01T08:00:38;101301.81;;;17.99;57.17
72055;BME280;59936;51.490;5.436;2023-05-01T08:03:03;101298.06;;;18.00;56.57
72055;BME280;59936;51.490;5.436;2023-05-01T08:05:29;101299.19;;;18.38;56.78
72055;BME280;59936;51.490;5.436;2023-05-01T08:07:55;101293.56;;;18.79;55.33
72055;BME280;59936;51.490;5.436;2023-05-01T08:10:21;101298.34;;;19.30;54.96
72055;BME280;59936;51.490;5.436;2023-05-01T08:12:47;101298.34;;;19.30;54.96
72055;BME280;59936;51.490;5.436;2023-05-01T08:15:13;101295.31;;;19.58;55.39
72055;BME280;59936;51.490;5.436;2023-05-01T08:17:39;101291.47;;;19.79;55.01
72055;BME280;59936;51.490;5.436;2023-05-01T08:20:06;101292.72;;;19.83;54.47
72055;BME280;59936;51.490;5.436;2023-05-01T08:22:32;101286.16;;;19.53;55.10
72055;BME280;59936;51.490;5.436;2023-05-01T08:24:58;101281.19;;;19.94;55.02
72055;BME280;59936;51.490;5.436;2023-05-01T08:27:24;101283.78;;;20.77;53.62
72055;BME280;59936;51.490;5.436;2023-05-01T08:29:50;101280.81;;;21.22;52.74
72055;BME280;59936;51.490;5.436;2023-05-01T08:32:17;101281.88;;;21.39;51.70
72055;BME280;59936;51.490;5.436;2023-05-01T08:34:43;101280.91;;;21.33;51.44
72055;BME280;59936;51.490;5.436;2023-05-01T08:37:08;101283.19;;;20.93;52.01
72055;BME280;59936;51.490;5.436;2023-05-01T08:39:34;101274.75;;;20.20;52.74
72055;BME280;59936;51.490;5.436;2023-05-01T08:42:01;101277.78;;;20.37;53.06
72055;BME280;59936;51.490;5.436;2023-05-01T08:44:29;101282.94;;;20.45;52.36
72055;BME280;59936;51.490;5.436;2023-05-01T08:47:14;101280.91;;;20.40;52.13
72055;BME280;59936;51.490;5.436;2023-05-01T08:49:41;101285.88;;;20.75;51.73
72055;BME280;59936;51.490;5.436;2023-05-01T08:52:10;101283.59;;;21.15;50.85
72055;BME280;59936;51.490;5.436;2023-05-01T08:54:38;101289.00;;;21.40;49.98
72055;BME280;59936;51.490;5.436;2023-05-01T08:57:05;101283.16;;;21.18;49.54
72055;BME280;59936;51.490;5.436;2023-05-01T08:59:35;101295.06;;;20.80;50.09
72055;BME280;59936;51.490;5.436;2023-05-01T09:02:02;101288.59;;;21.00;50.28
72055;BME280;59936;51.490;5.436;2023-05-01T09:04:33;101286.22;;;20.85;50.61
72055;BME280;59936;51.490;5.436;2023-05-01T09:07:00;101290.63;;;20.55;50.48
72055;BME280;59936;51.490;5.436;2023-05-01T09:09:26;101295.63;;;20.58;48.99
72055;BME280;59936;51.490;5.436;2023-05-01T09:11:59;101289.63;;;21.60;48.21
72055;BME280;59936;51.490;5.436;2023-05-01T09:14:27;101289.63;;;21.60;48.21
72055;BME280;59936;51.490;5.436;2023-05-01T09:16:54;101300.16;;;22.65;47.08
72055;BME280;59936;51.490;5.436;2023-05-01T09:19:20;101300.16;;;22.65;47.08
72055;BME280;59936;51.490;5.436;2023-05-01T09:21:46;101275.00;;;23.09;46.49
72055;BME280;59936;51.490;5.436;2023-05-01T09:24:12;101277.84;;;23.78;45.51
72055;BME280;59936;51.490;5.436;2023-05-01T09:26:39;101278.28;;;23.58;45.62
72055;BME280;59936;51.490;5.436;2023-05-01T09:29:05;101279.16;;;22.77;45.47
72055;BME280;59936;51.490;5.436;2023-05-01T09:31:31;101284.81;;;22.64;46.70
72055;BME280;59936;51.490;5.436;2023-05-01T09:34:04;101282.88;;;22.41;47.03
72055;BME280;59936;51.490;5.436;2023-05-01T09:36:32;101280.97;;;21.81;47.38
72055;BME280;59936;51.490;5.436;2023-05-01T09:39:02;101281.03;;;21.93;47.29
72055;BME280;59936;51.490;5.436;2023-05-01T09:41:28;101285.22;;;21.41;46.32
72055;BME280;59936;51.490;5.436;2023-05-01T09:43:55;101285.03;;;20.74;49.04
72055;BME280;59936;51.490;5.436;2023-05-01T09:46:22;101283.19;;;20.93;48.26
72055;BME280;59936;51.490;5.436;2023-05-01T09:53:48;101289.91;;;21.34;48.00
72055;BME280;59936;51.490;5.436;2023-05-01T09:56:15;101283.91;;;21.07;47.81
72055;BME280;59936;51.490;5.436;2023-05-01T09:58:40;101286.41;;;21.52;47.50
72055;BME280;59936;51.490;5.436;2023-05-01T10:01:06;101292.00;;;22.05;46.77
72055;BME280;59936;51.490;5.436;2023-05-01T10:03:36;101293.28;;;21.72;47.34
72055;BME280;59936;51.490;5.436;2023-05-01T10:06:02;101287.69;;;21.97;46.53
72055;BME280;59936;51.490;5.436;2023-05-01T10:08:54;101298.13;;;22.00;46.69
72055;BME280;59936;51.490;5.436;2023-05-01T10:11:20;101299.91;;;21.40;43.41
72055;BME280;59936;51.490;5.436;2023-05-01T10:14:04;101294.63;;;21.27;47.09
72055;BME280;59936;51.490;5.436;2023-05-01T10:16:30;101293.34;;;21.66;46.08
72055;BME280;59936;51.490;5.436;2023-05-01T10:18:56;101296.06;;;21.84;46.10
72055;BME280;59936;51.490;5.436;2023-05-01T10:21:21;101296.00;;;21.11;45.87
72055;BME280;59936;51.490;5.436;2023-05-01T10:23:47;101298.88;;;20.73;47.10
72055;BME280;59936;51.490;5.436;2023-05-01T10:26:15;101305.13;;;20.80;46.41
72055;BME280;59936;51.490;5.436;2023-05-01T10:28:45;101299.63;;;20.87;46.75
72055;BME280;59936;51.490;5.436;2023-05-01T10:31:12;101290.22;;;21.44;45.85
72055;BME280;59936;51.490;5.436;2023-05-01T10:33:39;101302.25;;;21.36;45.96
72055;BME280;59936;51.490;5.436;2023-05-01T10:36:13;101300.97;;;21.39;44.76
72055;BME280;59936;51.490;5.436;2023-05-01T10:38:40;101302.25;;;20.93;46.12
72055;BME280;59936;51.490;5.436;2023-05-01T10:41:08;101303.00;;;20.82;46.29
72055;BME280;59936;51.490;5.436;2023-05-01T10:43:34;101287.75;;;20.99;45.98
72055;BME280;59936;51.490;5.436;2023-05-01T10:51:07;101301.97;;;20.20;45.83
72055;BME280;59936;51.490;5.436;2023-05-01T10:53:33;101308.34;;;20.01;47.49
72055;BME280;59936;51.490;5.436;2023-05-01T10:55:59;101308.34;;;20.01;47.49
72055;BME280;59936;51.490;5.436;2023-05-01T11:04:03;101304.19;;;19.14;47.95
72055;BME280;59936;51.490;5.436;2023-05-01T11:06:30;101302.78;;;19.11;48.46
72055;BME280;59936;51.490;5.436;2023-05-01T11:08:56;101306.56;;;19.68;47.90
72055;BME280;59936;51.490;5.436;2023-05-01T11:19:05;101302.06;;;21.56;43.82
72055;BME280;59936;51.490;5.436;2023-05-01T11:21:33;101302.06;;;21.56;43.82
72055;BME280;59936;51.490;5.436;2023-05-01T11:24:00;101299.03;;;21.64;44.63
72055;BME280;59936;51.490;5.436;2023-05-01T11:26:29;101304.25;;;21.29;45.26
72055;BME280;59936;51.490;5.436;2023-05-01T11:28:59;101305.53;;;21.27;43.96
72055;BME280;59936;51.490;5.436;2023-05-01T11:31:26;101313.94;;;20.12;46.34
72055;BME280;59936;51.490;5.436;2023-05-01T11:33:54;101309.09;;;20.46;46.28
72055;BME280;59936;51.490;5.436;2023-05-01T11:36:21;101314.38;;;20.03;46.02
72055;BME280;59936;51.490;5.436;2023-05-01T11:38:51;101316.66;;;20.12;46.84
72055;BME280;59936;51.490;5.436;2023-05-01T11:41:20;101309.50;;;21.06;45.27
72055;BME280;59936;51.490;5.436;2023-05-01T11:43:53;101308.22;;;21.08;44.91
72055;BME280;59936;51.490;5.436;2023-05-01T11:46:27;101309.81;;;20.91;43.66
72055;BME280;59936;51.490;5.436;2023-05-01T11:48:57;101305.78;;;21.00;43.31
72055;BME280;59936;51.490;5.436;2023-05-01T11:51:24;101313.28;;;21.05;44.54
72055;BME280;59936;51.490;5.436;2023-05-01T11:56:23;101302.63;;;21.40;43.61
72055;BME280;59936;51.490;5.436;2023-05-01T11:58:48;101312.31;;;20.93;44.69
72055;BME280;59936;51.490;5.436;2023-05-01T12:01:14;101310.25;;;20.88;45.06
72055;BME280;59936;51.490;5.436;2023-05-01T12:03:41;101310.25;;;20.88;45.06
72055;BME280;59936;51.490;5.436;2023-05-01T12:06:08;101317.16;;;20.91;44.58
72055;BME280;59936;51.490;5.436;2023-05-01T12:08:34;101306.75;;;20.56;45.03
72055;BME280;59936;51.490;5.436;2023-05-01T12:11:01;101314.47;;;20.28;45.13
72055;BME280;59936;51.490;5.436;2023-05-01T12:13:27;101310.81;;;20.09;44.77
72055;BME280;59936;51.490;5.436;2023-05-01T12:15:55;101313.69;;;20.21;44.91
72055;BME280;59936;51.490;5.436;2023-05-01T12:18:21;101304.56;;;20.40;44.08
72055;BME280;59936;51.490;5.436;2023-05-01T12:20:49;101308.03;;;19.77;45.97
72055;BME280;59936;51.490;5.436;2023-05-01T12:23:15;101308.03;;;19.77;45.97
72055;BME280;59936;51.490;5.436;2023-05-01T12:25:42;101311.03;;;20.07;45.50
72055;BME280;59936;51.490;5.436;2023-05-01T12:28:09;101308.47;;;20.19;45.28
72055;BME280;59936;51.490;5.436;2023-05-01T12:30:42;101312.19;;;19.87;45.40
72055;BME280;59936;51.490;5.436;2023-05-01T12:33:11;101309.09;;;19.63;45.86
72055;BME280;59936;51.490;5.436;2023-05-01T12:35:37;101316.16;;;19.84;45.41
72055;BME280;59936;51.490;5.436;2023-05-01T12:40:38;101314.53;;;19.63;44.41
72055;BME280;59936;51.490;5.436;2023-05-01T12:43:04;101305.50;;;19.76;45.06
72055;BME280;59936;51.490;5.436;2023-05-01T12:45:37;101309.41;;;20.00;43.49
72055;BME280;59936;51.490;5.436;2023-05-01T12:48:11;101309.41;;;20.00;43.49
72055;BME280;59936;51.490;5.436;2023-05-01T12:50:38;101306.16;;;19.65;43.51
72055;BME280;59936;51.490;5.436;2023-05-01T12:53:04;101309.91;;;19.77;44.70
72055;BME280;59936;51.490;5.436;2023-05-01T12:55:30;101293.41;;;19.65;43.89
72055;BME280;59936;51.490;5.436;2023-05-01T12:57:59;101305.06;;;19.86;43.48
72055;BME280;59936;51.490;5.436;2023-05-01T13:00:24;101311.63;;;20.16;43.50
72055;BME280;59936;51.490;5.436;2023-05-01T13:02:50;101305.56;;;20.14;43.13
72055;BME280;59936;51.490;5.436;2023-05-01T13:05:16;101302.63;;;19.64;43.49
72055;BME280;59936;51.490;5.436;2023-05-01T13:07:49;101302.63;;;19.64;43.49
72055;BME280;59936;51.490;5.436;2023-05-01T13:10:28;101333.03;;;18.62;45.80
72055;BME280;59936;51.490;5.436;2023-05-01T13:12:54;101333.03;;;18.62;45.80
72055;BME280;59936;51.490;5.436;2023-05-01T13:15:20;101318.84;;;18.87;45.86
72055;BME280;59936;51.490;5.436;2023-05-01T13:17:46;101318.00;;;19.26;45.31
72055;BME280;59936;51.490;5.436;2023-05-01T13:20:12;101329.53;;;19.92;44.25
72055;BME280;59936;51.490;5.436;2023-05-01T13:22:39;101329.53;;;19.92;44.25
72055;BME280;59936;51.490;5.436;2023-05-01T13:25:16;101334.47;;;20.02;43.63
72055;BME280;59936;51.490;5.436;2023-05-01T13:27:51;101317.47;;;19.68;44.11
72055;BME280;59936;51.490;5.436;2023-05-01T13:30:19;101308.88;;;19.65;43.66
72055;BME280;59936;51.490;5.436;2023-05-01T13:32:45;101313.06;;;19.67;43.15
72055;BME280;59936;51.490;5.436;2023-05-01T13:35:11;101321.97;;;19.30;43.39
72055;BME280;59936;51.490;5.436;2023-05-01T13:37:38;101324.09;;;19.01;43.64
72055;BME280;59936;51.490;5.436;2023-05-01T13:40:05;101321.16;;;18.96;44.12